TimeEST,TemperatureF,Dew PointF,Humidity,Sea Level PressureIn,VisibilityMPH,Wind Direction,Wind SpeedMPH,Gust SpeedMPH,PrecipitationIn,Events,Conditions,WindDirDegrees,DateUTC
12:18 AM,17.6,14.0,86,29.96,10.0,SSW,10.4,-,N/A,,Mostly Cloudy,200,2014-01-16 05:18:00
12:38 AM,17.6,14.0,86,29.96,10.0,SSW,13.8,-,N/A,,Scattered Clouds,210,2014-01-16 05:38:00
12:58 AM,17.1,14.5,90,30.00,10.0,SSW,10.4,-,N/A,,Clear,200,2014-01-16 05:58:00
1:58 AM,17.4,15.3,91,29.99,10.0,SSW,12.7,-,N/A,,Mostly Cloudy,200,2014-01-16 06:58:00
2:58 AM,18.1,15.6,90,29.97,10.0,SSW,15.0,-,N/A,,Scattered Clouds,200,2014-01-16 07:58:00
3:58 AM,19.4,16.2,87,29.92,10.0,South,16.1,-,N/A,,Overcast,190,2014-01-16 08:58:00
4:58 AM,20.5,16.5,85,29.86,10.0,South,18.4,25.3,N/A,,Overcast,190,2014-01-16 09:58:00
5:58 AM,21.6,17.4,84,29.85,10.0,SSW,17.3,24.2,N/A,,Overcast,200,2014-01-16 10:58:00
6:58 AM,22.3,18.1,84,29.82,10.0,South,17.3,-,N/A,,Overcast,190,2014-01-16 11:58:00
7:20 AM,23.0,19.4,86,29.75,9.0,South,17.3,25.3,N/A,Snow,Light Snow,190,2014-01-16 12:20:00
7:53 AM,23.0,19.4,86,29.74,1.0,SSW,18.4,-,N/A,Snow,Light Snow,200,2014-01-16 12:53:00
7:58 AM,23.0,20.1,89,29.79,1.0,South,18.4,-,0.00,Snow,Light Snow,190,2014-01-16 12:58:00
8:23 AM,23.0,23.0,100,29.74,-9999.0,South,17.3,-,N/A,Snow,Light Snow,190,2014-01-16 13:23:00
8:55 AM,22.6,22.6,100,29.77,1.2,South,19.6,-,0.03,Snow,Light Snow,190,2014-01-16 13:55:00
9:55 AM,23.5,23.5,100,29.76,1.5,South,18.4,26.5,0.03,Snow,Light Snow,180,2014-01-16 14:55:00
10:29 AM,23.0,23.0,100,29.72,1.5,South,20.7,28.8,N/A,Snow,Light Snow,190,2014-01-16 15:29:00
10:58 AM,24.1,24.1,100,29.76,1.8,South,19.6,26.5,0.00,Snow,Light Snow,190,2014-01-16 15:58:00
11:58 AM,25.0,25.0,100,29.74,3.0,SSW,23.0,29.9,0.00,Snow,Light Snow,200,2014-01-16 16:58:00
12:31 PM,24.8,24.8,100,29.67,0.5,SSW,19.6,26.5,N/A,Snow,Snow,200,2014-01-16 17:31:00
12:55 PM,24.8,24.8,100,29.65,0.8,SSW,20.7,-,N/A,Snow,Light Snow,200,2014-01-16 17:55:00
12:58 PM,25.7,25.7,100,29.70,0.5,SSW,20.7,-,0.02,Snow,Snow,200,2014-01-16 17:58:00
1:10 PM,26.6,26.6,100,29.64,0.5,SSW,18.4,25.3,N/A,Snow,Snow,200,2014-01-16 18:10:00
1:20 PM,26.6,26.6,100,29.63,0.4,SSW,18.4,-,N/A,Snow,Snow,200,2014-01-16 18:20:00
1:41 PM,26.6,26.6,100,29.62,0.8,SSW,17.3,-,N/A,Snow,Snow,200,2014-01-16 18:41:00
1:51 PM,26.6,26.6,100,29.62,2.0,SSW,18.4,-,N/A,Snow,Light Snow,200,2014-01-16 18:51:00
1:54 PM,26.6,26.6,100,29.61,3.0,SSW,18.4,-,N/A,Snow,Light Snow,200,2014-01-16 18:54:00
1:58 PM,26.2,26.2,100,29.65,3.0,SSW,17.3,-,0.01,Snow,Light Snow,200,2014-01-16 18:58:00
2:05 PM,26.6,26.6,100,29.61,5.0,SSW,18.4,-,N/A,Snow,Light Snow,200,2014-01-16 19:05:00
2:12 PM,26.6,26.6,100,29.61,7.0,SSW,19.6,-,N/A,Snow,Light Snow,200,2014-01-16 19:12:00
2:58 PM,27.7,27.7,100,29.65,7.0,SSW,19.6,-,0.00,,Overcast,210,2014-01-16 19:58:00
3:58 PM,28.2,28.0,99,29.65,10.0,SSW,18.4,-,N/A,,Overcast,200,2014-01-16 20:58:00
4:23 PM,28.4,28.4,100,29.61,10.0,SSW,18.4,23.0,N/A,Snow,Light Snow,210,2014-01-16 21:23:00
4:58 PM,28.4,28.2,99,29.66,10.0,SSW,16.1,-,0.00,Snow,Light Snow,210,2014-01-16 21:58:00
5:50 PM,28.4,28.4,100,29.62,10.0,SSW,18.4,-,N/A,Snow,Light Snow,200,2014-01-16 22:50:00
5:58 PM,28.4,27.7,97,29.66,10.0,SSW,18.4,-,0.00,Snow,Light Snow,200,2014-01-16 22:58:00
6:58 PM,28.4,27.9,98,29.66,10.0,SSW,19.6,-,0.00,Snow,Light Snow,200,2014-01-16 23:58:00
7:21 PM,28.4,28.4,100,29.63,0.5,SSW,19.6,25.3,N/A,Fog-Snow,Snow,210,2014-01-17 00:21:00
7:41 PM,28.4,28.4,100,29.63,0.8,SSW,18.4,-,N/A,Snow,Light Snow,210,2014-01-17 00:41:00
7:58 PM,28.4,28.4,100,29.68,1.2,SSW,20.7,-,0.01,Snow,Light Snow,210,2014-01-17 00:58:00
8:09 PM,28.4,28.4,100,29.64,4.0,SW,19.6,-,N/A,Snow,Light Snow,220,2014-01-17 01:09:00
8:47 PM,30.2,30.2,100,29.65,10.0,WSW,17.3,-,N/A,,Overcast,250,2014-01-17 01:47:00
8:58 PM,29.8,29.8,100,29.70,10.0,WSW,16.1,-,0.01,,Overcast,250,2014-01-17 01:58:00
9:58 PM,27.7,23.9,86,29.72,10.0,West,19.6,-,N/A,,Overcast,270,2014-01-17 02:58:00
10:58 PM,23.5,18.3,80,29.73,10.0,West,12.7,-,N/A,,Mostly Cloudy,260,2014-01-17 03:58:00
11:58 PM,26.4,18.3,71,29.74,10.0,WSW,13.8,-,N/A,,Overcast,240,2014-01-17 04:58:00